createdAt,value
2023-02-25T04:35:32.021Z,14.60
2023-02-25T04:46:07.875Z,11.02
2023-02-25T04:56:43.754Z,15.70
2023-02-25T05:07:19.397Z,15.77
2023-02-25T05:17:54.791Z,11.80
2023-02-25T05:28:30.678Z,10.00
2023-02-25T05:39:06.487Z,7.90
2023-02-25T05:49:43.487Z,9.10
2023-02-25T06:00:21.421Z,10.60
2023-02-25T06:10:57.720Z,15.93
2023-02-25T06:21:35.227Z,15.30
2023-02-25T06:32:14.415Z,13.95
2023-02-25T06:42:50.462Z,17.08
2023-02-25T06:53:26.262Z,12.60
2023-02-25T07:04:01.861Z,15.43
2023-02-25T07:14:37.758Z,11.88
2023-02-25T07:25:13.600Z,8.35
2023-02-25T07:35:49.102Z,13.20
2023-02-25T07:46:26.059Z,13.93
2023-02-25T07:57:01.756Z,21.17
2023-02-25T08:07:37.755Z,10.05
2023-02-25T08:18:13.687Z,16.92
2023-02-25T08:28:50.305Z,20.13
2023-02-25T08:39:26.314Z,9.25
2023-02-25T08:50:01.577Z,15.27
2023-02-25T09:00:37.800Z,12.32
2023-02-25T09:11:13.629Z,15.68
2023-02-25T09:21:49.146Z,7.70
2023-02-25T09:32:24.822Z,9.63
2023-02-25T09:43:12.502Z,12.00
2023-02-25T09:54:12.510Z,4.43
2023-02-25T10:05:03.361Z,9.32
2023-02-25T10:15:58.532Z,8.88
2023-02-25T10:26:39.332Z,13.40
2023-02-25T10:37:20.756Z,10.38
2023-02-25T10:48:13.650Z,7.03
2023-02-25T10:59:24.466Z,11.88
2023-02-25T11:21:07.197Z,13.68
2023-02-25T11:31:43.826Z,15.00
2023-02-25T11:42:26.270Z,8.27
2023-02-25T11:53:18.706Z,6.72
2023-02-25T12:04:18.445Z,10.40
2023-02-25T12:15:16.430Z,9.20
2023-02-25T12:26:06.560Z,12.02
2023-02-25T12:36:56.234Z,12.90
2023-02-25T12:47:46.943Z,9.63
2023-02-25T12:58:50.207Z,4.43
2023-02-25T13:10:00.001Z,2.78
2023-02-25T13:20:43.490Z,1.13
2023-02-25T13:31:37.684Z,1.48
2023-02-25T13:42:31.514Z,3.75
2023-02-25T13:53:33.752Z,2.10
2023-02-25T14:04:33.364Z,2.40
2023-02-25T14:15:18.421Z,5.53
2023-02-25T14:26:06.464Z,4.25
2023-02-25T14:37:01.863Z,3.50
2023-02-25T14:47:56.396Z,2.08
2023-02-25T14:59:05.946Z,3.58
2023-02-25T15:10:23.338Z,2.53
2023-02-25T15:21:20.751Z,2.38
2023-02-25T15:32:23.014Z,5.65
2023-02-25T15:43:26.320Z,8.60
2023-02-25T15:54:02.257Z,4.97
2023-02-25T16:04:51.457Z,10.48
2023-02-25T16:26:23.636Z,3.85
2023-02-25T16:37:43.756Z,2.80
2023-02-25T16:48:26.834Z,3.38
2023-02-25T16:59:14.422Z,5.93
2023-02-25T17:10:02.870Z,6.75
2023-02-25T17:20:39.459Z,11.60
2023-02-25T17:31:18.573Z,14.88
2023-02-25T17:41:54.713Z,6.97
2023-02-25T17:52:32.034Z,5.28
2023-02-25T18:03:18.751Z,10.43
2023-02-25T18:13:54.914Z,7.20
2023-02-25T18:24:34.348Z,4.80
2023-02-25T18:35:11.156Z,3.75
2023-02-25T18:45:47.495Z,9.93
2023-02-25T18:56:23.866Z,3.90
2023-02-25T19:06:59.672Z,7.25
2023-02-25T19:17:35.461Z,9.57
2023-02-25T19:28:11.533Z,2.67
2023-02-25T19:38:47.193Z,7.72
2023-02-25T19:49:23.249Z,6.97
2023-02-25T19:59:59.336Z,5.10
2023-02-25T20:10:34.867Z,5.32
2023-02-25T20:21:10.569Z,9.88
2023-02-25T20:31:46.393Z,4.88
2023-02-25T20:42:25.258Z,4.80
2023-02-25T21:03:36.252Z,5.25
2023-02-25T21:14:11.960Z,4.18
2023-02-25T21:24:47.882Z,4.93
2023-02-25T21:35:25.145Z,3.72
2023-02-25T21:46:03.318Z,9.60
2023-02-25T21:56:40.761Z,6.20
2023-02-25T22:07:16.349Z,12.07
2023-02-25T22:17:52.063Z,12.60
2023-02-25T22:28:27.812Z,18.52
